MSC Florentina — HPFH — position and weather

sailwx.info

Track history (hours):
 
Tides and Currents Weather Stations Pressure Air Temp Water Temp Dewpoint Dewpoint Depression Visibility Wind Speed Wind Dir Waves Ship Positions

MSC Florentina

Last reported at 2015-Aug-03 17:27 UTC. Time now 2015-Aug-04 09:40 UTC.
Position N 29°55' W 090°05'.

Length 300 m; draft 10.2 m.

Type: Ship. MMSI: 352870000.

Date/timePositionNaut miles runAvg speedWind from/ knotsBaromVisibWave heightAir tempDewpointWater temp
2015-Aug-03 17:27N 29°55' W 090°05'5 5.8
2015-Aug-03 16:31N 29°56' W 089°59'249 4.9
2015-Aug-01 13:33N 29°21' W 094°42'1310.7
2015-Aug-01 12:22N 29°30' W 094°52'910.5
2015-Aug-01 11:34N 29°37' W 094°58'2 2.2
2015-Aug-01 10:32N 29°37' W 095°00'0 0.0
2015-Aug-01 09:29N 29°37' W 095°00'0 0.0
2015-Aug-01 08:32N 29°37' W 095°00'0 0.0
2015-Aug-01 07:32N 29°37' W 095°00'0 0.0
2015-Aug-01 06:29N 29°37' W 095°00'0 0.0
2015-Aug-01 05:32N 29°37' W 095°00'0 0.0
2015-Aug-01 04:32N 29°37' W 095°00'0 0.0
2015-Aug-01 03:29N 29°37' W 095°00'0 0.0
2015-Aug-01 02:32N 29°37' W 095°00'0 0.0
2015-Aug-01 01:32N 29°37' W 095°00'0 0.0
2015-Aug-01 00:26N 29°37' W 095°00'0 0.0
2015-Jul-31 23:32N 29°37' W 095°00'0 0.0
2015-Jul-31 22:29N 29°37' W 095°00'0 0.0
2015-Jul-31 21:32N 29°37' W 095°00'0 0.0
2015-Jul-31 20:32N 29°37' W 095°00'0 0.0
2015-Jul-31 19:29N 29°37' W 095°00'0 0.0
2015-Jul-31 18:32N 29°37' W 095°00'0 0.0
2015-Jul-31 17:32N 29°37' W 095°00'0 0.0
2015-Jul-31 16:32N 29°37' W 095°00'0 0.0
2015-Jul-31 15:32N 29°37' W 095°00'0 0.0
2015-Jul-31 14:32N 29°37' W 095°00'0 0.0
2015-Jul-31 13:32N 29°37' W 095°00'0 0.0
2015-Jul-31 12:32N 29°37' W 095°00'0 0.5
2015-Jul-31 11:34N 29°37' W 095°01'3 2.8
2015-Jul-31 10:33N 29°37' W 094°58'1010.0
2015-Jul-31 09:33N 29°28' W 094°51'1211.4
2015-Jul-31 08:31N 29°20' W 094°41'  
2015-Jul-26 08:32N 25°41' W 079°41'1413.8
2015-Jul-26 07:33N 25°55' W 079°42'1515.3
2015-Jul-26 06:33N 26°02' W 079°57'10 9.8
2015-Jul-26 05:33N 26°05' W 080°07'1 1.1
2015-Jul-26 04:33N 26°04' W 080°07'0 0.0
2015-Jul-26 03:33N 26°04' W 080°07'0 0.0
2015-Jul-26 02:33N 26°04' W 080°07'0 0.0
2015-Jul-26 01:33N 26°04' W 080°07'0 0.0
2015-Jul-26 00:33N 26°04' W 080°07'0 0.0
2015-Jul-25 23:33N 26°04' W 080°07'0 0.0
2015-Jul-25 22:33N 26°04' W 080°07'0 0.0
2015-Jul-25 21:33N 26°04' W 080°07'0 0.0
2015-Jul-25 20:30N 26°04' W 080°07'0 0.0
2015-Jul-25 19:30N 26°04' W 080°07'0 0.0
2015-Jul-25 18:33N 26°04' W 080°07'0 0.0
2015-Jul-25 17:33N 26°04' W 080°07'0 0.0
2015-Jul-25 16:33N 26°04' W 080°07'0 0.0
2015-Jul-25 15:33N 26°04' W 080°07'0 0.0
2015-Jul-25 14:33N 26°04' W 080°07'0 0.0
2015-Jul-25 13:33N 26°04' W 080°07'0 0.0
2015-Jul-25 12:33N 26°04' W 080°07'0 0.0
2015-Jul-25 11:24N 26°04' W 080°07'0 0.0
2015-Jul-25 10:27N 26°04' W 080°07'0 0.0
2015-Jul-25 09:27N 26°04' W 080°07'0 0.0
2015-Jul-25 08:27N 26°04' W 080°07'3 3.5
2015-Jul-25 07:34N 26°06' W 080°04'6 5.6
2015-Jul-25 06:33N 26°06' W 079°58'2 2.1
2015-Jul-25 05:33N 26°04' W 079°58'2 1.6
2015-Jul-25 04:33N 26°03' W 079°59'1 0.8
2015-Jul-25 03:33N 26°02' W 079°59'5 4.8
2015-Jul-25 02:33N 26°07' W 079°58'1110.9
2015-Jul-25 01:33N 26°10' W 079°46'1110.6
2015-Jul-25 00:33N 26°13' W 079°35'  
Track history (hours):
 
Tides and Currents Weather Stations Pressure Air Temp Water Temp Dewpoint Dewpoint Depression Visibility Wind Speed Wind Dir Waves Ship Positions

MSC Florentina

Last reported at 2015-Aug-03 17:27 UTC. Time now 2015-Aug-04 09:40 UTC.
Position N 29°55' W 090°05'.

Length 300 m; draft 10.2 m.

Type: Ship. MMSI: 352870000.

Date/timePositionNaut miles runAvg speedWind from/ knotsBaromVisibWave heightAir tempDewpointWater temp
2015-Aug-03 17:27N 29°55' W 090°05'5 5.8
2015-Aug-03 16:31N 29°56' W 089°59'249 4.9
2015-Aug-01 13:33N 29°21' W 094°42'1310.7
2015-Aug-01 12:22N 29°30' W 094°52'910.5
2015-Aug-01 11:34N 29°37' W 094°58'2 2.2
2015-Aug-01 10:32N 29°37' W 095°00'0 0.0
2015-Aug-01 09:29N 29°37' W 095°00'0 0.0
2015-Aug-01 08:32N 29°37' W 095°00'0 0.0
2015-Aug-01 07:32N 29°37' W 095°00'0 0.0
2015-Aug-01 06:29N 29°37' W 095°00'0 0.0
2015-Aug-01 05:32N 29°37' W 095°00'0 0.0
2015-Aug-01 04:32N 29°37' W 095°00'0 0.0
2015-Aug-01 03:29N 29°37' W 095°00'0 0.0
2015-Aug-01 02:32N 29°37' W 095°00'0 0.0
2015-Aug-01 01:32N 29°37' W 095°00'0 0.0
2015-Aug-01 00:26N 29°37' W 095°00'0 0.0
2015-Jul-31 23:32N 29°37' W 095°00'0 0.0
2015-Jul-31 22:29N 29°37' W 095°00'0 0.0
2015-Jul-31 21:32N 29°37' W 095°00'0 0.0
2015-Jul-31 20:32N 29°37' W 095°00'0 0.0
2015-Jul-31 19:29N 29°37' W 095°00'0 0.0
2015-Jul-31 18:32N 29°37' W 095°00'0 0.0
2015-Jul-31 17:32N 29°37' W 095°00'0 0.0
2015-Jul-31 16:32N 29°37' W 095°00'0 0.0
2015-Jul-31 15:32N 29°37' W 095°00'0 0.0
2015-Jul-31 14:32N 29°37' W 095°00'0 0.0
2015-Jul-31 13:32N 29°37' W 095°00'0 0.0
2015-Jul-31 12:32N 29°37' W 095°00'0 0.5
2015-Jul-31 11:34N 29°37' W 095°01'3 2.8
2015-Jul-31 10:33N 29°37' W 094°58'1010.0
2015-Jul-31 09:33N 29°28' W 094°51'1211.4
2015-Jul-31 08:31N 29°20' W 094°41'  
2015-Jul-26 08:32N 25°41' W 079°41'1413.8
2015-Jul-26 07:33N 25°55' W 079°42'1515.3
2015-Jul-26 06:33N 26°02' W 079°57'10 9.8
2015-Jul-26 05:33N 26°05' W 080°07'1 1.1
2015-Jul-26 04:33N 26°04' W 080°07'0 0.0
2015-Jul-26 03:33N 26°04' W 080°07'0 0.0
2015-Jul-26 02:33N 26°04' W 080°07'0 0.0
2015-Jul-26 01:33N 26°04' W 080°07'0 0.0
2015-Jul-26 00:33N 26°04' W 080°07'0 0.0
2015-Jul-25 23:33N 26°04' W 080°07'0 0.0
2015-Jul-25 22:33N 26°04' W 080°07'0 0.0
2015-Jul-25 21:33N 26°04' W 080°07'0 0.0
2015-Jul-25 20:30N 26°04' W 080°07'0 0.0
2015-Jul-25 19:30N 26°04' W 080°07'0 0.0
2015-Jul-25 18:33N 26°04' W 080°07'0 0.0
2015-Jul-25 17:33N 26°04' W 080°07'0 0.0
2015-Jul-25 16:33N 26°04' W 080°07'0 0.0
2015-Jul-25 15:33N 26°04' W 080°07'0 0.0
2015-Jul-25 14:33N 26°04' W 080°07'0 0.0
2015-Jul-25 13:33N 26°04' W 080°07'0 0.0
2015-Jul-25 12:33N 26°04' W 080°07'0 0.0
2015-Jul-25 11:24N 26°04' W 080°07'0 0.0
2015-Jul-25 10:27N 26°04' W 080°07'0 0.0
2015-Jul-25 09:27N 26°04' W 080°07'0 0.0
2015-Jul-25 08:27N 26°04' W 080°07'3 3.5
2015-Jul-25 07:34N 26°06' W 080°04'6 5.6
2015-Jul-25 06:33N 26°06' W 079°58'2 2.1
2015-Jul-25 05:33N 26°04' W 079°58'2 1.6
2015-Jul-25 04:33N 26°03' W 079°59'1 0.8
2015-Jul-25 03:33N 26°02' W 079°59'5 4.8
2015-Jul-25 02:33N 26°07' W 079°58'1110.9
2015-Jul-25 01:33N 26°10' W 079°46'1110.6
2015-Jul-25 00:33N 26°13' W 079°35'  

Dump ship's entire track history